Главная страница
METAR-TAF:

METAR-TAF

Аэропорты :

Резольют, Нунавут, Канада

широта: 74-43N, долгота: 094-59W, высота над уровнем моря: 67 м

Текущие метеонаблюдения

Эта сводка был подготовлена 57 минут назад, в 23:00 UTC
Ветер 15 Узел от северо-западный
Температура -22°C
Влажность 70%
Давление 1013 hPa
Видимость: 24.1 км
небольшая облачность на высоте 4000 фута
Ледяные иглы

METAR: CYRB 222300Z 32015KT 15SM IC FEW040 M22/M26 A2992 RMK SC1 SC TR SLP145

Время: 18:57 (23:57 UTC)

Прогноз

Эта сводка был подготовлена 19 минут назад, в 23:38 UTC
Прогноз действительный с 23-го 00 UTC до 23-го 24 UTC
Ветер 15 Узел от северо-западный
Видимость: 10 км
Отдельные облака на высоте 5000 фута
Ледяные иглы
временами
С 23-го 00 UTC до 23-го 24 UTC
Ветер 15 Узел от северо-западный с порывами до 25 Узел
Видимость: 8.0 км
Ледяные иглы, низовая метель

TAF: CYRB 222338Z 2300/2324 32015KT P6SM IC SCT050 TEMPO 2300/2324 32015G25KT 5SM IC BLSN RMK NXT FCST BY 230600Z

Метеонаблюдения и прогнозы для более 4000 аэропортов (сводки METAR и TAF).

Имеющиеся станции представлены на карте желтыми и красными точками.

Чтобы увидеть название станции, наведите на нее мышь.

Затем щелкните, чтобы увидеть метеонаблюдения и метеопрогнозы.

Управление картой: чтобы увеличить масштаб, щелкните зеленые кнопки с черным крестиком; чтобы уменьшить масштаб, щелкните зеленую кнопку с тире; для просмотра соседних карт щелкайте зеленые стрелки.


METAR-TAF: